Latest Coastal Weather Observations for Christmas Island

IDW60701

Issued at 12:42 am WST Wednesday 1 April 2015 (issued every 10 minutes, with the page automatically refreshed every 10 minutes)

About coastal observations | Map of coastal stations | Coastal observations for WA | Marine services | Other Formats
Station Details ID: 200790 Name: CHRISTMAS ISLAND AERO Lat: -10.45 Lon: 105.69 Height: 261.0 m
Data from the previous 72 hours. | See also: Recent months at Christmas Island
Date/Time
WST
Temp

°C
Wind Pressure Rain
since 9am
mm
Weather Cloud Vis
km
Sea
Height
m
Swell
Dir
 
Speed
knots
Gust
knots
hPa Trend Height
m
Period
s
Dir
01/12:00am 26.3 SE 9 11 1014.6 - 0.0 - Partly cloudy 10 - - - -
 
Date/Time
WST
Temp

°C
Wind Pressure Rain
since 9am
mm
Weather Cloud Vis
km
Sea
Height
m
Swell
Dir
 
Speed
knots
Gust
knots
hPa Trend Height
m
Period
s
Dir
31/11:47pm 26.2 SE 7 11 1014.6 - 0.0 - Partly cloudy 10 - - - -
31/11:00pm 26.3 SE 9 11 1014.5 - 0.0 - Partly cloudy 10 - - - -
31/10:00pm 26.3 SE 8 11 1012.8 - 0.0 - Mostly clear 10 - - - -
31/09:00pm 26.5 SE 8 11 1013.8 - 0.0 - Partly cloudy 10 - - - -
31/08:00pm 26.4 ESE 7 9 1013.2 - 0.0 - Partly cloudy 10 - - - -
31/07:00pm 26.5 SE 8 10 1010.9 - 0.0 - Mostly cloudy 10 - - - -
31/06:00pm 27.6 SE 8 11 1012.1 - 0.0 - Partly cloudy 10 - - - -
31/05:00pm 27.4 ESE 9 12 1011.7 - 0.0 - Partly cloudy 10 - - - -
31/04:00pm 28.4 ESE 10 14 1010.1 - 0.0 - Mostly clear 10 - - - -
31/03:00pm 28.2 ESE 11 15 1012.3 - 0.0 - Partly cloudy 10 - - - -
31/02:00pm 28.6 ESE 11 15 1012.9 - 0.0 - Partly cloudy 10 - - - -
31/01:00pm 28.3 ESE 10 15 1011.8 - 0.0 - Mostly clear 10 - - - -
31/12:00pm 28.8 ESE 10 15 1013.9 - 0.0 - Partly cloudy 10 - - - -
31/11:00am 28.2 ESE 10 14 1014.3 - 0.0 - Partly cloudy 10 - - - -
31/10:00am 28.2 ESE 10 14 1012.4 - 0.0 - Mostly clear 10 - - - -
31/09:00am 27.1 ESE 9 13 1014.0 - 0.0 - Partly cloudy 10 - - - -
31/08:39am 26.8 ESE 9 11 1013.8 - 0.0 - Partly cloudy 10 - - - -
31/08:00am 26.3 ESE 8 10 1013.3 - 0.0 - Partly cloudy 10 - - - -
31/07:52am 26.7 ESE 7 9 1013.2 - 0.0 - Partly cloudy 10 - - - -
31/07:00am 25.7 E 8 11 1010.9 - 0.0 - Mostly clear 10 - - - -
31/06:00am 25.5 ESE 6 9 1012.3 - 0.0 - Partly cloudy 10 - - - -
31/05:00am 25.6 ESE 6 9 1012.3 - 0.0 - Partly cloudy 10 - - - -
31/04:41am 25.7 E 5 8 1012.3 - 0.0 - Partly cloudy 10 - - - -
31/04:12am 25.8 ESE 5 7 1012.4 - 0.0 - Partly cloudy 10 - - - -
31/04:00am 25.8 ESE 6 9 1010.8 - 0.0 - Partly cloudy 10 - - - -
31/03:37am 25.8 E 7 11 1012.5 - 0.0 - Partly cloudy 10 - - - -
31/03:00am 25.9 ESE 8 11 1012.7 - 0.0 - Partly cloudy 10 - - - -
31/02:47am 26.1 ESE 7 11 1012.9 - 0.0 - Partly cloudy 10 - - - -
31/02:00am 26.0 ESE 8 10 1013.5 - 0.0 - Partly cloudy 10 - - - -
31/01:00am 26.0 ESE 7 9 1012.4 - 0.0 - Mostly clear 10 - - - -
31/12:00am 26.3 E 7 11 1014.4 - 0.0 - Partly cloudy 10 - - - -
 
Date/Time
WST
Temp

°C
Wind Pressure Rain
since 9am
mm
Weather Cloud Vis
km
Sea
Height
m
Swell
Dir
 
Speed
knots
Gust
knots
hPa Trend Height
m
Period
s
Dir
30/11:00pm 26.2 ESE 8 11 1014.5 - 0.0 - Partly cloudy 10 - - - -
30/10:00pm 26.1 ESE 8 10 1012.9 - 0.0 - Mostly clear 10 - - - -
30/09:00pm 26.3 ESE 7 10 1014.2 - 0.0 - Partly cloudy 10 - - - -
30/08:00pm 26.2 ESE 6 9 1013.6 - 0.0 - Partly cloudy 10 - - - -
30/07:00pm 26.4 ESE 6 7 1011.3 - 0.0 - Mostly clear 10 - - - -
30/06:00pm 27.1 SE 6 10 1012.2 - 0.0 - Partly cloudy 10 - - - -
30/05:00pm 26.8 ESE 6 10 1012.2 - 0.0 - Partly cloudy 10 - - - -
30/04:44pm 27.0 ESE 7 10 1012.1 - 0.0 - Partly cloudy 10 - - - -
30/04:22pm 27.3 ESE 8 10 1012.4 - 0.0 - Partly cloudy 10 - - - -
30/04:00pm 28.7 E 8 13 1010.7 - 0.0 - Mostly cloudy 10 - - - -
30/03:00pm 28.1 E 8 11 1012.5 - 0.0 - Partly cloudy 10 - - - -
30/02:39pm 28.5 E 8 11 1012.3 - 0.0 - Partly cloudy 10 - - - -
30/02:25pm 28.0 SE 8 11 1012.3 - 0.0 - Partly cloudy 10 - - - -
30/02:00pm 28.1 ESE 8 12 1012.5 - 0.0 - Partly cloudy 10 - - - -
30/01:00pm 28.9 E 9 12 1011.7 - 0.0 - Mostly clear 10 - - - -
30/12:12pm 27.8 E 8 12 1014.0 - 0.0 - Partly cloudy 10 - - - -
30/12:00pm 28.0 E 10 12 1014.1 - 0.0 - Partly cloudy 10 - - - -
30/11:07am 28.1 E 10 13 1014.3 - 0.0 - Partly cloudy 10 - - - -
30/11:00am 28.4 E 10 13 1014.4 - 0.0 - Partly cloudy 10 - - - -
30/10:29am 28.0 ESE 8 10 1014.4 - 0.0 - Partly cloudy 10 - - - -
30/10:00am 27.7 SE 7 9 1012.5 - 0.0 - Cloudy 10 - - - -
30/09:41am 27.9 SE 7 9 1014.1 - 0.0 - Partly cloudy 10 - - - -
30/09:09am 27.4 SE 7 11 1013.9 - 0.0 - Partly cloudy 10 - - - -
30/09:00am 27.0 SE 7 10 1013.7 - 0.0 - Partly cloudy 10 - - - -
30/08:39am 27.0 ESE 6 8 1013.7 - 0.0 - Partly cloudy 10 - - - -
30/08:00am 25.9 SE 3 6 1013.2 - 0.0 - Partly cloudy 10 - - - -
30/07:07am 25.5 ESE 6 8 1012.6 - 0.0 - Partly cloudy 10 - - - -
30/07:00am 25.3 ESE 4 8 1010.9 - 0.0 - Cloudy 10 - - - -
30/06:09am 24.9 ESE 3 6 1012.1 - 0.0 - Partly cloudy 10 - - - -
30/06:00am 25.1 E 6 9 1011.9 - 0.0 - Partly cloudy 10 - - - -
30/05:00am 25.3 SE 5 6 1011.6 - 0.0 - Partly cloudy 10 - - - -
30/04:20am 25.4 SE 5 7 1011.4 - 0.0 - Partly cloudy 10 - - - -
30/04:09am 25.5 ESE 6 8 1011.4 - 0.0 - Partly cloudy 10 - - - -
30/04:00am 25.5 ESE 6 7 1009.8 - 0.0 - Mostly cloudy 10 - - - -
30/03:04am 25.3 ESE 5 6 1011.6 - 0.0 - Partly cloudy 10 - - - -
30/03:00am 25.2 ESE 4 6 1011.7 - 0.0 - Partly cloudy 10 - - - -
30/02:50am 25.2 ESE 4 5 1011.8 - 0.0 - Partly cloudy 10 - - - -
30/02:10am - ESE 4 6 - - 0.0 - Partly cloudy 10 - - - -
30/02:00am 25.4 ESE 5 6 1011.9 - 0.0 - Partly cloudy 10 - - - -
30/01:32am 25.6 ESE 5 7 1012.2 - 0.0 - Partly cloudy 10 - - - -
30/01:27am 25.5 ESE 5 7 1012.2 - 0.0 - Partly cloudy 10 - - - -
30/01:06am 25.4 ESE 5 6 1012.5 - 0.0 - Partly cloudy 10 - - - -
30/01:00am 25.4 ESE 4 5 1010.8 - 0.0 - Mostly clear 10 - - - -
30/12:40am 25.4 E 5 7 1012.6 - 0.0 - Partly cloudy 10 - - - -
30/12:00am 25.4 E 6 7 1012.6 - 0.0 - - 10 - - - -
 
Date/Time
WST
Temp

°C
Wind Pressure Rain
since 9am
mm
Weather Cloud Vis
km
Sea
Height
m
Swell
Dir
 
Speed
knots
Gust
knots
hPa Trend Height
m
Period
s
Dir
29/11:00pm 25.6 E 5 6 1013.2 - 0.0 - - 10 - - - -
29/10:00pm 26.0 E 5 7 1011.2 - 0.0 - Mostly clear 10 - - - -
29/09:29pm 26.1 NE 5 6 1012.6 - 0.0 - Partly cloudy 10 - - - -
29/09:06pm 26.2 NE 4 7 1012.5 - 0.0 - Partly cloudy 10 - - - -
29/09:00pm 26.1 NE 4 5 1012.5 - 0.0 - Partly cloudy 10 - - - -
29/08:00pm 26.3 ENE 4 6 1011.8 - 0.0 - - 10 - - - -
29/07:00pm 26.6 NE 6 9 1009.6 - 0.0 - Mostly clear 10 - - - -
29/06:00pm 27.3 NNE 6 8 1011.1 - 0.0 - Partly cloudy 10 - - - -
29/05:00pm 27.7 NE 7 10 1010.8 - 0.0 - Partly cloudy 10 - - - -
29/04:00pm 28.1 NNE 7 12 1009.1 - 0.0 - Mostly clear 10 - - - -
29/03:52pm 28.4 NNE 8 12 1010.7 - 0.0 - Partly cloudy 10 - - - -
29/03:32pm 28.2 NE 8 12 1010.8 - 0.0 - Partly cloudy 10 - - - -
29/03:00pm 28.6 NE 7 9 1011.1 - 0.0 - Partly cloudy 10 - - - -
29/02:00pm 28.9 NNE 7 10 1011.7 - 0.0 - Partly cloudy 10 - - - -
29/01:00pm 28.5 NE 9 13 1010.9 - 0.0 - Mostly cloudy 10 - - - -
29/12:11pm 28.5 ENE 11 14 1012.9 - 0.0 - Partly cloudy 10 - - - -
29/12:00pm 28.9 ENE 10 15 1012.9 - 0.0 - Partly cloudy 10 - - - -
29/11:54am 28.4 ENE 9 13 1012.9 - 0.0 - Partly cloudy 10 - - - -
29/11:00am 28.6 E 10 13 1013.1 - 0.0 - - 10 - - - -
29/10:00am 27.8 E 8 10 1011.4 - 8.2 - Mostly clear 10 - - - -
29/09:00am 27.0 NE 8 12 1013.5 - 8.2 - Partly cloudy 10 - - - -
29/08:02am 26.0 ESE 5 8 1013.4 - 8.2 - Partly cloudy 10 - - - -
29/08:00am 25.9 ESE 5 8 1013.4 - 8.2 - Partly cloudy 10 - - - -
29/07:52am 25.7 SE 4 8 1013.4 - 8.2 - Partly cloudy 10 - - - -
29/07:21am 25.5 NNE 8 13 1012.8 - 8.2 - Partly cloudy 10 - - - -
29/07:05am 25.4 NE 11 13 1012.7 - 8.2 - Partly cloudy 10 - - - -
29/07:00am 25.8 E 8 13 1011.0 - 8.2 - Cloudy 10 - - - -
29/06:24am 26.2 E 7 10 1012.3 - 8.2 - Partly cloudy 10 - - - -
29/06:00am 26.2 E 7 11 1012.2 - 8.2 - Partly cloudy 10 - - - -
29/05:43am 26.2 E 7 11 1012.2 - 8.2 - Partly cloudy 10 - - - -
29/05:00am 26.2 E 7 11 1011.8 - 8.2 - Partly cloudy 10 - - - -
29/04:22am 26.3 E 7 10 1011.8 - 8.2 - Partly cloudy 10 - - - -
29/04:04am 26.2 ESE 7 10 1011.9 - 8.2 - Partly cloudy 10 - - - -
29/04:00am 26.2 ESE 7 10 1010.3 - 8.2 - Cloudy 10 - - - -
29/03:29am 26.3 ESE 8 12 1012.1 - 8.2 - Partly cloudy 10 - - - -
29/03:26am 26.3 ESE 9 12 1012.1 - 8.2 - Partly cloudy 10 - - - -
29/03:00am 26.2 ESE 8 13 1012.1 - 8.2 - Partly cloudy 10 - - - -
29/02:00am 26.2 ESE 8 11 1012.6 - 8.2 - Partly cloudy 10 - - - -
29/01:48am 26.2 SE 7 11 1012.7 - 8.2 - Partly cloudy 10 - - - -

Other Formats:

Comma delimited format used in spreadsheet applications
http://www.bom.gov.au/fwo/IDW60701/IDW60701.96995.axf

JavaScript Object Notation format (JSON) in row-major order
http://www.bom.gov.au/fwo/IDW60701/IDW60701.96995.json